createdAt,value
2023-02-19T00:01:44.291Z,6.50
2023-02-19T00:04:18.848Z,7.97
2023-02-19T00:06:46.826Z,6.80
2023-02-19T00:09:15.711Z,7.47
2023-02-19T00:11:43.021Z,6.47
2023-02-19T00:14:14.682Z,6.70
2023-02-19T00:16:41.410Z,6.13
2023-02-19T00:19:12.631Z,5.90
2023-02-19T00:21:39.327Z,5.90
2023-02-19T00:24:08.216Z,8.07
2023-02-19T00:26:35.305Z,6.93
2023-02-19T00:29:02.321Z,8.77
2023-02-19T00:31:33.523Z,12.63
2023-02-19T00:34:05.533Z,14.57
2023-02-19T00:36:36.221Z,15.07
2023-02-19T00:39:04.710Z,20.97
2023-02-19T00:41:31.698Z,20.47
2023-02-19T00:44:00.848Z,20.57
2023-02-19T00:46:40.163Z,20.57
2023-02-19T00:49:08.439Z,28.60
2023-02-19T00:51:37.799Z,25.67
2023-02-19T00:54:05.517Z,25.00
2023-02-19T00:56:33.005Z,23.20
2023-02-19T00:58:59.849Z,23.47
2023-02-19T01:01:26.622Z,24.13
2023-02-19T01:03:53.454Z,23.37
2023-02-19T01:06:22.992Z,23.47
2023-02-19T01:08:50.531Z,30.00
2023-02-19T01:11:18.524Z,26.47
2023-02-19T01:13:45.243Z,28.10
2023-02-19T01:16:19.006Z,29.10
2023-02-19T01:18:47.670Z,27.03
2023-02-19T01:21:20.382Z,26.07
2023-02-19T01:23:48.034Z,32.90
2023-02-19T01:26:17.445Z,27.10
2023-02-19T01:28:44.624Z,26.90
2023-02-19T01:31:16.203Z,33.03
2023-02-19T01:33:48.343Z,33.33
2023-02-19T01:36:15.933Z,27.97
2023-02-19T01:38:43.177Z,31.07
2023-02-19T01:41:13.693Z,28.20
2023-02-19T01:43:59.134Z,33.00
2023-02-19T01:46:31.337Z,29.67
2023-02-19T01:49:01.345Z,31.87
2023-02-19T01:51:29.464Z,26.80
2023-02-19T01:53:59.447Z,31.37
2023-02-19T01:56:28.730Z,26.10
2023-02-19T01:58:55.494Z,28.97
2023-02-19T02:01:22.208Z,27.10
2023-02-19T02:03:49.856Z,28.90
2023-02-19T02:06:30.647Z,24.73
2023-02-19T02:09:17.072Z,24.60
2023-02-19T02:11:49.827Z,27.93
2023-02-19T02:14:27.451Z,29.83
2023-02-19T02:17:13.738Z,26.07
2023-02-19T02:19:52.472Z,21.33
2023-02-19T02:22:25.507Z,24.13
2023-02-19T02:25:33.571Z,26.27
2023-02-19T02:28:18.300Z,26.73
2023-02-19T02:30:49.487Z,23.07
2023-02-19T02:33:29.383Z,23.43
2023-02-19T02:36:21.973Z,29.27
2023-02-19T02:38:49.437Z,25.87
2023-02-19T02:41:16.272Z,22.80
2023-02-19T02:43:43.057Z,26.80
2023-02-19T02:46:11.688Z,27.97
2023-02-19T02:48:53.809Z,24.90
2023-02-19T02:51:29.897Z,24.07
2023-02-19T02:54:25.228Z,26.20
2023-02-19T02:56:53.736Z,24.83
2023-02-19T02:59:23.669Z,24.40
2023-02-19T03:02:14.142Z,20.30
2023-02-19T03:05:28.258Z,21.37
2023-02-19T03:08:04.962Z,20.03
2023-02-19T03:10:50.210Z,19.30
2023-02-19T03:13:43.873Z,19.63
2023-02-19T03:16:58.096Z,14.87
2023-02-19T03:19:27.695Z,13.20
2023-02-19T03:22:10.278Z,12.37
2023-02-19T03:25:01.602Z,12.43
2023-02-19T03:27:32.154Z,13.90
2023-02-19T03:30:04.879Z,12.87
2023-02-19T03:32:37.449Z,14.93
2023-02-19T03:35:11.216Z,14.40
2023-02-19T03:37:45.324Z,14.80
2023-02-19T03:40:13.126Z,13.13
2023-02-19T03:42:43.665Z,13.73
2023-02-19T03:45:25.527Z,16.77
2023-02-19T03:48:25.150Z,14.60
2023-02-19T03:51:16.468Z,16.83
2023-02-19T03:54:08.859Z,17.17
2023-02-19T03:56:41.482Z,19.93
2023-02-19T03:59:35.147Z,15.17
2023-02-19T04:02:19.356Z,19.03
2023-02-19T04:04:51.022Z,16.40
2023-02-19T04:07:18.009Z,17.27
2023-02-19T04:09:48.204Z,16.90
2023-02-19T04:12:16.691Z,15.03
2023-02-19T04:14:46.604Z,14.33
2023-02-19T04:17:21.310Z,18.67
2023-02-19T04:19:51.294Z,17.10
2023-02-19T04:22:19.143Z,12.20
2023-02-19T04:24:51.981Z,12.80
2023-02-19T04:27:19.239Z,15.67
2023-02-19T04:29:46.110Z,16.50
2023-02-19T04:32:13.882Z,14.40
2023-02-19T04:34:40.549Z,11.47
2023-02-19T04:37:08.017Z,13.13
2023-02-19T04:39:34.822Z,13.27
2023-02-19T04:42:01.506Z,14.47
2023-02-19T04:44:28.482Z,15.27
2023-02-19T04:46:55.359Z,16.83
2023-02-19T04:49:22.139Z,13.03
2023-02-19T04:51:48.812Z,12.37
2023-02-19T04:54:15.508Z,14.17
2023-02-19T04:56:42.227Z,10.87
2023-02-19T04:59:09.268Z,14.83
2023-02-19T05:01:36.040Z,13.03
2023-02-19T05:04:04.588Z,14.43
2023-02-19T05:06:31.267Z,13.00
2023-02-19T05:08:57.984Z,11.97
2023-02-19T05:11:24.863Z,12.23
2023-02-19T05:13:51.874Z,13.27
2023-02-19T05:16:18.580Z,11.63
2023-02-19T05:18:46.569Z,9.77
2023-02-19T05:21:13.871Z,10.77
2023-02-19T05:23:41.288Z,12.10
2023-02-19T05:26:10.001Z,12.40
2023-02-19T05:28:36.831Z,11.73
2023-02-19T05:31:08.906Z,12.47
2023-02-19T05:33:36.989Z,9.73
2023-02-19T05:36:09.922Z,9.43
2023-02-19T05:38:37.348Z,9.83
2023-02-19T05:41:12.061Z,12.33
2023-02-19T05:43:40.058Z,8.70
2023-02-19T05:46:07.749Z,15.13
2023-02-19T05:48:34.747Z,9.07
2023-02-19T05:51:06.503Z,13.00
2023-02-19T05:53:33.485Z,9.43
2023-02-19T05:56:00.398Z,9.67
2023-02-19T05:58:28.183Z,9.37
2023-02-19T06:00:55.600Z,9.83
2023-02-19T06:03:22.948Z,11.60
2023-02-19T06:05:49.651Z,10.07
2023-02-19T06:08:16.495Z,8.70
2023-02-19T06:10:43.801Z,11.37
2023-02-19T06:13:10.851Z,8.70
2023-02-19T06:15:38.305Z,11.00
2023-02-19T06:18:05.026Z,9.83
2023-02-19T06:20:32.940Z,10.53
2023-02-19T06:22:59.689Z,9.67
2023-02-19T06:25:26.386Z,9.20
2023-02-19T06:27:53.056Z,10.20
2023-02-19T06:30:20.004Z,12.17
2023-02-19T06:32:46.738Z,13.17
2023-02-19T06:35:13.424Z,9.63
2023-02-19T06:37:40.090Z,12.70
2023-02-19T06:40:07.354Z,12.03
2023-02-19T06:42:34.051Z,9.13
2023-02-19T06:45:00.701Z,10.23
2023-02-19T06:47:31.688Z,11.10
2023-02-19T06:49:59.021Z,9.97
2023-02-19T06:52:26.926Z,11.53
2023-02-19T06:54:53.999Z,10.23
2023-02-19T06:57:20.721Z,11.90
2023-02-19T06:59:47.383Z,11.47
2023-02-19T07:02:14.135Z,13.23
2023-02-19T07:04:40.942Z,10.53
2023-02-19T07:07:11.897Z,14.50
2023-02-19T07:09:38.572Z,12.50
2023-02-19T07:12:05.728Z,12.10
2023-02-19T07:14:32.504Z,9.33
2023-02-19T07:16:59.213Z,12.17
2023-02-19T07:19:25.882Z,12.83
2023-02-19T07:21:52.556Z,11.17
2023-02-19T07:24:21.441Z,12.73
2023-02-19T07:26:48.290Z,11.90
2023-02-19T07:29:14.942Z,13.17
2023-02-19T07:31:42.658Z,16.87
2023-02-19T07:34:09.348Z,12.00
2023-02-19T07:36:36.157Z,11.90
2023-02-19T07:39:02.977Z,13.30
2023-02-19T07:41:29.690Z,10.97
2023-02-19T07:43:56.369Z,13.03
2023-02-19T07:46:23.811Z,13.20
2023-02-19T07:48:50.504Z,15.07
2023-02-19T07:51:19.447Z,9.67
2023-02-19T07:53:47.021Z,11.93
2023-02-19T07:56:14.382Z,7.47
2023-02-19T07:58:41.418Z,4.23
2023-02-19T08:01:11.001Z,2.83
2023-02-19T08:03:38.809Z,2.00
2023-02-19T08:06:06.215Z,2.20
2023-02-19T08:08:32.994Z,1.90
2023-02-19T08:11:21.898Z,2.83
2023-02-19T08:13:50.142Z,2.00
2023-02-19T08:16:29.582Z,2.50
2023-02-19T08:19:00.230Z,1.87
2023-02-19T08:21:27.146Z,2.00
2023-02-19T08:23:54.089Z,2.20
2023-02-19T08:26:21.404Z,2.30
2023-02-19T08:28:53.400Z,2.40
2023-02-19T08:31:20.962Z,2.43
2023-02-19T08:33:48.271Z,2.43
2023-02-19T08:36:15.387Z,2.33
2023-02-19T08:38:42.507Z,2.70
2023-02-19T08:41:13.734Z,2.67
2023-02-19T08:43:43.889Z,4.37
2023-02-19T08:46:14.203Z,2.50
2023-02-19T08:48:43.701Z,3.03
2023-02-19T08:51:14.892Z,2.90
2023-02-19T08:53:44.401Z,3.13
2023-02-19T08:56:18.131Z,3.13
2023-02-19T08:58:48.206Z,3.40
2023-02-19T09:01:19.250Z,3.40
2023-02-19T09:03:48.702Z,3.50
2023-02-19T09:06:19.498Z,3.07
2023-02-19T09:08:48.871Z,3.30
2023-02-19T09:11:18.264Z,2.40
2023-02-19T09:13:47.757Z,2.50
2023-02-19T09:16:17.071Z,2.17
2023-02-19T09:18:46.416Z,3.67
2023-02-19T09:21:15.895Z,2.20
2023-02-19T09:23:45.442Z,1.80
2023-02-19T09:26:15.366Z,2.00
2023-02-19T09:28:45.008Z,3.03
2023-02-19T09:31:16.265Z,2.13
2023-02-19T09:33:46.841Z,1.97
2023-02-19T09:36:17.036Z,2.97
2023-02-19T09:38:46.478Z,3.57
2023-02-19T09:41:18.931Z,2.87
2023-02-19T09:43:48.463Z,2.97
2023-02-19T09:46:39.200Z,5.67
2023-02-19T09:49:10.406Z,2.60
2023-02-19T09:51:40.971Z,2.50
2023-02-19T09:54:15.528Z,3.50
2023-02-19T09:56:44.881Z,3.30
2023-02-19T09:59:21.386Z,3.17
2023-02-19T10:01:52.504Z,3.17
2023-02-19T10:04:21.940Z,3.57
2023-02-19T10:06:52.461Z,4.13
2023-02-19T10:09:26.969Z,3.73
2023-02-19T10:12:01.330Z,2.90
2023-02-19T10:14:42.948Z,4.03
2023-02-19T10:17:16.817Z,3.80
2023-02-19T10:19:46.597Z,4.07
2023-02-19T10:22:16.226Z,3.57
2023-02-19T10:24:45.712Z,2.90
2023-02-19T10:27:15.910Z,3.43
2023-02-19T10:29:49.165Z,5.90
2023-02-19T10:32:23.912Z,3.67
2023-02-19T10:35:11.656Z,4.87
2023-02-19T10:37:51.629Z,3.57
2023-02-19T10:40:25.144Z,4.17
2023-02-19T10:43:02.446Z,3.80
2023-02-19T10:45:41.356Z,4.83
2023-02-19T10:48:24.739Z,3.57
2023-02-19T10:50:58.156Z,3.37
2023-02-19T10:53:38.290Z,3.40
2023-02-19T10:56:12.917Z,5.40
2023-02-19T10:58:44.712Z,3.37
2023-02-19T11:01:14.068Z,3.40
2023-02-19T11:03:43.642Z,3.30
2023-02-19T11:06:13.753Z,2.80
2023-02-19T11:08:49.301Z,3.40
2023-02-19T11:11:33.681Z,4.63
2023-02-19T11:14:05.235Z,2.80
2023-02-19T11:17:03.893Z,2.67
2023-02-19T11:19:36.755Z,2.83
2023-02-19T11:22:20.950Z,3.00
2023-02-19T11:24:57.848Z,2.70
2023-02-19T11:27:28.690Z,2.80
2023-02-19T11:29:58.152Z,2.40
2023-02-19T11:32:29.672Z,2.77
2023-02-19T11:35:17.766Z,2.83
2023-02-19T11:38:03.541Z,2.80
2023-02-19T11:40:42.839Z,3.13
2023-02-19T11:43:30.960Z,2.87
2023-02-19T11:46:21.874Z,2.60
2023-02-19T11:48:55.975Z,3.17
2023-02-19T11:51:31.745Z,3.03
2023-02-19T11:54:06.991Z,3.17
2023-02-19T11:56:39.219Z,3.03
2023-02-19T11:59:25.754Z,3.03
2023-02-19T12:02:14.154Z,3.10
2023-02-19T12:04:55.656Z,5.50
2023-02-19T12:07:43.176Z,2.90
2023-02-19T12:10:18.530Z,2.97
2023-02-19T12:13:06.480Z,3.10
2023-02-19T12:16:05.251Z,2.90
2023-02-19T12:19:08.201Z,3.47
2023-02-19T12:21:38.025Z,3.50
2023-02-19T12:24:16.821Z,3.30
2023-02-19T12:27:04.917Z,3.17
2023-02-19T12:29:46.230Z,3.20
2023-02-19T12:32:27.927Z,3.00
2023-02-19T12:35:09.155Z,3.10
2023-02-19T12:37:47.232Z,3.00
2023-02-19T12:40:35.406Z,3.00
2023-02-19T12:43:24.468Z,2.70
2023-02-19T12:46:03.413Z,3.20
2023-02-19T12:48:37.074Z,2.90
2023-02-19T12:51:13.806Z,3.10
2023-02-19T12:53:48.128Z,3.10
2023-02-19T12:56:23.541Z,2.87
2023-02-19T12:58:56.093Z,3.03
2023-02-19T13:01:29.239Z,3.77
2023-02-19T13:04:17.709Z,4.27
2023-02-19T13:06:58.956Z,4.00
2023-02-19T13:09:37.396Z,3.40
2023-02-19T13:12:12.852Z,3.77
2023-02-19T13:14:49.515Z,3.20
2023-02-19T13:17:19.053Z,4.17
2023-02-19T13:19:49.922Z,3.17
2023-02-19T13:22:44.414Z,3.47
2023-02-19T13:25:15.184Z,2.97
2023-02-19T13:27:59.960Z,3.10
2023-02-19T13:30:44.581Z,3.67
2023-02-19T13:33:33.657Z,4.63
2023-02-19T13:36:14.487Z,3.53
2023-02-19T13:38:45.894Z,3.47
2023-02-19T13:41:29.623Z,3.50
2023-02-19T13:44:01.009Z,4.07
2023-02-19T13:46:37.971Z,5.20
2023-02-19T13:49:25.791Z,3.53
2023-02-19T13:51:58.801Z,3.63
2023-02-19T13:54:39.825Z,4.40
2023-02-19T13:57:24.704Z,5.07
2023-02-19T13:59:54.680Z,6.93
2023-02-19T14:02:25.908Z,3.10
2023-02-19T14:05:01.418Z,6.03
2023-02-19T14:07:38.772Z,4.13
2023-02-19T14:10:11.465Z,3.90
2023-02-19T14:12:40.930Z,3.63
2023-02-19T14:15:28.339Z,3.20
2023-02-19T14:17:57.922Z,3.63
2023-02-19T14:20:39.392Z,3.80
2023-02-19T14:23:17.671Z,4.20
2023-02-19T14:25:58.227Z,5.13
2023-02-19T14:28:27.749Z,4.80
2023-02-19T14:30:58.737Z,24.30
2023-02-19T14:33:33.235Z,6.47
2023-02-19T14:36:06.304Z,3.60
2023-02-19T14:38:38.655Z,5.87
2023-02-19T14:41:09.496Z,5.73
2023-02-19T14:43:39.427Z,6.37
2023-02-19T14:46:31.136Z,3.90
2023-02-19T14:49:08.215Z,5.10
2023-02-19T14:51:45.875Z,3.40
2023-02-19T14:54:16.857Z,3.80
2023-02-19T14:56:48.180Z,5.07
2023-02-19T14:59:24.967Z,4.57
2023-02-19T15:02:02.559Z,4.70
2023-02-19T15:04:40.861Z,4.27
2023-02-19T15:07:11.710Z,4.17
2023-02-19T15:09:45.714Z,4.00
2023-02-19T15:12:36.217Z,5.63
2023-02-19T15:15:07.820Z,8.77
2023-02-19T15:17:39.035Z,4.17
2023-02-19T15:20:12.699Z,4.30
2023-02-19T15:22:43.655Z,4.37
2023-02-19T15:25:19.787Z,3.47
2023-02-19T15:27:49.370Z,3.80
2023-02-19T15:30:27.446Z,3.90
2023-02-19T15:32:58.318Z,4.50
2023-02-19T15:35:29.173Z,9.53
2023-02-19T15:37:58.685Z,9.73
2023-02-19T15:40:32.408Z,6.33
2023-02-19T15:43:02.912Z,5.40
2023-02-19T15:45:34.517Z,8.10
2023-02-19T15:48:10.170Z,6.97
2023-02-19T15:50:44.018Z,7.47
2023-02-19T15:53:18.562Z,8.37
2023-02-19T15:55:47.959Z,10.67
2023-02-19T15:58:30.342Z,8.50
2023-02-19T16:01:05.104Z,6.97
2023-02-19T16:03:34.996Z,3.90
2023-02-19T16:06:05.647Z,6.17
2023-02-19T16:08:36.944Z,8.57
2023-02-19T16:11:29.889Z,6.83
2023-02-19T16:14:18.766Z,13.77
2023-02-19T16:16:49.748Z,5.80
2023-02-19T16:19:30.508Z,9.67
2023-02-19T16:22:00.810Z,5.70
2023-02-19T16:24:31.517Z,5.23
2023-02-19T16:27:01.378Z,4.10
2023-02-19T16:29:31.765Z,4.80
2023-02-19T16:32:02.955Z,6.03
2023-02-19T16:34:50.419Z,4.27
2023-02-19T16:37:44.149Z,6.50
2023-02-19T16:40:16.414Z,3.80
2023-02-19T16:42:52.974Z,6.70
2023-02-19T16:45:22.522Z,6.57
2023-02-19T16:47:52.038Z,5.23
2023-02-19T16:50:22.831Z,5.13
2023-02-19T16:53:05.826Z,6.47
2023-02-19T16:55:35.242Z,5.77
2023-02-19T16:58:04.682Z,5.37
2023-02-19T17:00:34.966Z,5.40
2023-02-19T17:03:08.962Z,6.83
2023-02-19T17:05:38.739Z,6.10
2023-02-19T17:08:24.138Z,7.03
2023-02-19T17:10:55.871Z,7.00
2023-02-19T17:13:25.585Z,6.37
2023-02-19T17:15:55.010Z,6.00
2023-02-19T17:18:24.496Z,8.67
2023-02-19T17:20:57.366Z,6.43
2023-02-19T17:23:26.775Z,6.87
2023-02-19T17:25:56.301Z,9.90
2023-02-19T17:28:26.057Z,10.27
2023-02-19T17:30:55.478Z,6.53
2023-02-19T17:33:24.911Z,5.07
2023-02-19T17:35:54.336Z,7.00
2023-02-19T17:38:23.742Z,8.30
2023-02-19T17:40:53.142Z,6.43
2023-02-19T17:43:25.393Z,8.40
2023-02-19T17:45:55.028Z,6.50
2023-02-19T17:48:24.404Z,6.67
2023-02-19T17:50:53.798Z,6.27
2023-02-19T17:53:23.113Z,8.30
2023-02-19T17:55:52.492Z,8.97
2023-02-19T17:58:21.816Z,8.90
2023-02-19T18:00:51.196Z,7.87
2023-02-19T18:03:20.561Z,7.30
2023-02-19T18:05:49.933Z,9.70
2023-02-19T18:08:19.432Z,11.90
2023-02-19T18:10:48.838Z,11.27
2023-02-19T18:13:18.199Z,12.77
2023-02-19T18:15:47.676Z,8.03
2023-02-19T18:18:17.116Z,8.10
2023-02-19T18:20:46.516Z,13.80
2023-02-19T18:23:15.865Z,8.90
2023-02-19T18:25:45.359Z,7.40
2023-02-19T18:28:14.996Z,6.37
2023-02-19T18:30:44.429Z,8.37
2023-02-19T18:33:13.812Z,9.30
2023-02-19T18:35:43.339Z,9.80
2023-02-19T18:38:12.752Z,7.87
2023-02-19T18:40:42.180Z,7.17
2023-02-19T18:43:11.618Z,10.73
2023-02-19T18:45:43.250Z,8.97
2023-02-19T18:48:12.734Z,11.13
2023-02-19T18:50:42.084Z,11.73
2023-02-19T18:53:11.618Z,9.23
2023-02-19T18:55:40.997Z,9.77
2023-02-19T18:58:10.279Z,8.83
2023-02-19T19:00:39.621Z,11.73
2023-02-19T19:03:08.918Z,9.40
2023-02-19T19:05:38.287Z,8.47
2023-02-19T19:08:07.665Z,9.77
2023-02-19T19:10:36.978Z,14.80
2023-02-19T19:13:06.539Z,9.00
2023-02-19T19:15:35.876Z,8.70
2023-02-19T19:18:05.177Z,8.63
2023-02-19T19:20:34.494Z,11.07
2023-02-19T19:23:04.851Z,10.93
2023-02-19T19:25:34.270Z,8.30
2023-02-19T19:28:03.560Z,8.60
2023-02-19T19:30:33.691Z,9.27
2023-02-19T19:33:03.580Z,6.73
2023-02-19T19:35:32.963Z,7.10
2023-02-19T19:38:02.336Z,6.57
2023-02-19T19:40:31.665Z,6.33
2023-02-19T19:43:00.952Z,6.27
2023-02-19T19:45:33.307Z,7.20
2023-02-19T19:48:09.821Z,6.37
2023-02-19T19:50:39.111Z,6.17
2023-02-19T19:53:08.465Z,6.20
2023-02-19T19:55:37.802Z,6.83
2023-02-19T19:58:07.151Z,5.40
2023-02-19T20:00:36.553Z,5.03
2023-02-19T20:03:07.060Z,5.53
2023-02-19T20:05:36.499Z,5.60
2023-02-19T20:08:05.918Z,6.20
2023-02-19T20:10:35.238Z,5.27
2023-02-19T20:13:04.640Z,5.93
2023-02-19T20:15:34.949Z,5.50
2023-02-19T20:18:04.754Z,5.00
2023-02-19T20:20:34.132Z,5.13
2023-02-19T20:23:03.544Z,6.23
2023-02-19T20:25:32.954Z,7.77
2023-02-19T20:28:02.677Z,5.67
2023-02-19T20:30:32.229Z,5.90
2023-02-19T20:33:01.779Z,5.53
2023-02-19T20:35:31.805Z,5.90
2023-02-19T20:38:01.189Z,6.43
2023-02-19T20:40:32.222Z,6.27
2023-02-19T20:43:03.162Z,6.20
2023-02-19T20:45:32.679Z,5.53
2023-02-19T20:48:02.162Z,5.17
2023-02-19T20:50:31.579Z,5.43
2023-02-19T20:53:01.156Z,5.73
2023-02-19T20:55:31.928Z,6.40
2023-02-19T20:58:01.412Z,5.23
2023-02-19T21:00:30.813Z,5.10
2023-02-19T21:03:00.227Z,7.70
2023-02-19T21:05:29.593Z,5.40
2023-02-19T21:07:58.948Z,5.80
2023-02-19T21:10:28.312Z,7.57
2023-02-19T21:12:57.671Z,7.53
2023-02-19T21:15:27.080Z,6.70
2023-02-19T21:17:56.436Z,5.37
2023-02-19T21:20:25.792Z,7.57
2023-02-19T21:22:55.151Z,5.90
2023-02-19T21:25:24.458Z,6.27
2023-02-19T21:27:53.833Z,6.70
2023-02-19T21:30:23.277Z,5.87
2023-02-19T21:32:52.720Z,6.10
2023-02-19T21:35:22.041Z,5.07
2023-02-19T21:37:51.444Z,6.10
2023-02-19T21:40:22.031Z,5.63
2023-02-19T21:42:51.378Z,6.37
2023-02-19T21:45:20.756Z,6.87
2023-02-19T21:47:52.132Z,6.77
2023-02-19T21:50:22.558Z,8.97
2023-02-19T21:52:52.101Z,5.40
2023-02-19T21:55:21.462Z,8.17
2023-02-19T21:57:50.856Z,6.67
2023-02-19T22:00:20.431Z,5.50
2023-02-19T22:02:49.876Z,5.90
2023-02-19T22:05:19.538Z,5.23
2023-02-19T22:07:50.300Z,5.70
2023-02-19T22:10:19.784Z,6.77
2023-02-19T22:12:49.294Z,6.37
2023-02-19T22:15:18.627Z,5.73
2023-02-19T22:17:48.019Z,5.67
2023-02-19T22:20:19.505Z,7.43
2023-02-19T22:22:49.809Z,6.00
2023-02-19T22:25:19.194Z,6.30
2023-02-19T22:27:49.828Z,6.30
2023-02-19T22:30:19.477Z,5.93
2023-02-19T22:32:48.812Z,6.13
2023-02-19T22:35:18.219Z,7.77
2023-02-19T22:37:47.607Z,6.80
2023-02-19T22:40:16.984Z,7.23
2023-02-19T22:42:46.320Z,7.97
2023-02-19T22:45:16.199Z,7.67
2023-02-19T22:47:46.886Z,8.53
2023-02-19T22:50:22.323Z,7.97
2023-02-19T22:52:55.109Z,10.97
2023-02-19T22:55:24.795Z,8.70
2023-02-19T22:57:54.132Z,10.33
2023-02-19T23:00:24.297Z,10.27
2023-02-19T23:02:53.632Z,10.20
2023-02-19T23:05:24.494Z,11.80
2023-02-19T23:07:53.904Z,11.83
2023-02-19T23:10:23.365Z,11.20
2023-02-19T23:12:52.761Z,12.50
2023-02-19T23:15:22.155Z,12.27
2023-02-19T23:17:51.502Z,13.40
2023-02-19T23:20:20.931Z,12.63
2023-02-19T23:22:50.529Z,12.57
2023-02-19T23:25:19.911Z,13.43
2023-02-19T23:27:49.397Z,15.30
2023-02-19T23:30:18.880Z,13.83
2023-02-19T23:32:48.222Z,13.23
2023-02-19T23:35:20.923Z,14.27
2023-02-19T23:37:50.779Z,13.40
2023-02-19T23:40:20.264Z,13.90
2023-02-19T23:42:49.630Z,13.60
2023-02-19T23:45:19.533Z,14.27
2023-02-19T23:47:49.184Z,13.70
2023-02-19T23:50:19.341Z,14.27
2023-02-19T23:52:48.659Z,13.93
2023-02-19T23:55:18.087Z,14.67
2023-02-19T23:57:47.495Z,13.67
